sensor_id;sensor_type;location;lat;lon;timestamp;P1;durP1;ratioP1;P2;durP2;ratioP2
18820;SDS011;9539;59.332;18.034;2022-07-11T00:00:05;3.58;;;1.55;;
18820;SDS011;9539;59.332;18.034;2022-07-11T00:02:33;1.80;;;1.40;;
18820;SDS011;9539;59.332;18.034;2022-07-11T00:05:00;1.50;;;1.40;;
18820;SDS011;9539;59.332;18.034;2022-07-11T00:07:28;1.67;;;1.58;;
18820;SDS011;9539;59.332;18.034;2022-07-11T00:09:54;2.67;;;1.33;;
18820;SDS011;9539;59.332;18.034;2022-07-11T00:12:24;2.08;;;1.40;;
18820;SDS011;9539;59.332;18.034;2022-07-11T00:14:51;4.35;;;1.42;;
18820;SDS011;9539;59.332;18.034;2022-07-11T00:17:20;2.80;;;1.40;;
18820;SDS011;9539;59.332;18.034;2022-07-11T00:19:49;1.85;;;1.30;;
18820;SDS011;9539;59.332;18.034;2022-07-11T00:22:15;3.97;;;1.42;;
18820;SDS011;9539;59.332;18.034;2022-07-11T00:24:45;1.88;;;1.30;;
18820;SDS011;9539;59.332;18.034;2022-07-11T00:27:14;1.65;;;1.30;;
18820;SDS011;9539;59.332;18.034;2022-07-11T00:29:40;3.22;;;1.40;;
18820;SDS011;9539;59.332;18.034;2022-07-11T00:32:09;2.25;;;1.30;;
18820;SDS011;9539;59.332;18.034;2022-07-11T00:34:37;2.95;;;1.23;;
18820;SDS011;9539;59.332;18.034;2022-07-11T00:37:04;2.05;;;1.42;;
18820;SDS011;9539;59.332;18.034;2022-07-11T00:39:31;2.13;;;1.33;;
18820;SDS011;9539;59.332;18.034;2022-07-11T00:41:57;2.33;;;1.30;;
18820;SDS011;9539;59.332;18.034;2022-07-11T00:44:25;1.50;;;1.30;;
18820;SDS011;9539;59.332;18.034;2022-07-11T00:46:55;1.40;;;1.30;;
18820;SDS011;9539;59.332;18.034;2022-07-11T00:49:22;1.40;;;1.30;;
18820;SDS011;9539;59.332;18.034;2022-07-11T00:51:50;1.50;;;1.40;;
18820;SDS011;9539;59.332;18.034;2022-07-11T00:54:17;2.15;;;1.42;;
18820;SDS011;9539;59.332;18.034;2022-07-11T00:56:47;1.92;;;1.50;;
18820;SDS011;9539;59.332;18.034;2022-07-11T00:59:14;1.70;;;1.45;;
18820;SDS011;9539;59.332;18.034;2022-07-11T01:01:44;1.70;;;1.38;;
18820;SDS011;9539;59.332;18.034;2022-07-11T01:04:11;1.90;;;1.60;;
18820;SDS011;9539;59.332;18.034;2022-07-11T01:06:40;1.95;;;1.50;;
18820;SDS011;9539;59.332;18.034;2022-07-11T01:09:08;2.17;;;1.60;;
18820;SDS011;9539;59.332;18.034;2022-07-11T01:11:35;2.40;;;1.52;;
18820;SDS011;9539;59.332;18.034;2022-07-11T01:14:02;2.13;;;1.50;;
18820;SDS011;9539;59.332;18.034;2022-07-11T01:16:31;2.63;;;1.50;;
18820;SDS011;9539;59.332;18.034;2022-07-11T01:18:57;2.45;;;1.50;;
18820;SDS011;9539;59.332;18.034;2022-07-11T01:21:28;1.67;;;1.42;;
18820;SDS011;9539;59.332;18.034;2022-07-11T01:23:58;4.25;;;1.55;;
18820;SDS011;9539;59.332;18.034;2022-07-11T01:26:27;2.72;;;1.70;;
18820;SDS011;9539;59.332;18.034;2022-07-11T01:29:04;2.00;;;1.52;;
18820;SDS011;9539;59.332;18.034;2022-07-11T01:31:34;2.15;;;1.60;;
18820;SDS011;9539;59.332;18.034;2022-07-11T01:34:01;1.60;;;1.50;;
18820;SDS011;9539;59.332;18.034;2022-07-11T01:36:28;1.52;;;1.42;;
18820;SDS011;9539;59.332;18.034;2022-07-11T01:38:54;2.88;;;1.45;;
18820;SDS011;9539;59.332;18.034;2022-07-11T01:41:25;2.00;;;1.60;;
18820;SDS011;9539;59.332;18.034;2022-07-11T01:43:52;3.85;;;1.40;;
18820;SDS011;9539;59.332;18.034;2022-07-11T01:46:18;1.63;;;1.52;;
18820;SDS011;9539;59.332;18.034;2022-07-11T01:48:49;3.17;;;1.65;;
18820;SDS011;9539;59.332;18.034;2022-07-11T01:51:16;1.95;;;1.67;;
18820;SDS011;9539;59.332;18.034;2022-07-11T01:53:43;3.45;;;1.50;;
18820;SDS011;9539;59.332;18.034;2022-07-11T01:56:10;1.70;;;1.60;;
18820;SDS011;9539;59.332;18.034;2022-07-11T01:58:41;2.17;;;1.92;;
18820;SDS011;9539;59.332;18.034;2022-07-11T02:01:11;1.75;;;1.40;;
18820;SDS011;9539;59.332;18.034;2022-07-11T02:03:40;1.75;;;1.40;;
18820;SDS011;9539;59.332;18.034;2022-07-11T02:06:07;1.63;;;1.52;;
18820;SDS011;9539;59.332;18.034;2022-07-11T02:08:34;1.55;;;1.45;;
18820;SDS011;9539;59.332;18.034;2022-07-11T02:11:01;2.30;;;1.50;;
18820;SDS011;9539;59.332;18.034;2022-07-11T02:13:28;1.40;;;1.30;;
18820;SDS011;9539;59.332;18.034;2022-07-11T02:15:56;1.80;;;1.38;;
18820;SDS011;9539;59.332;18.034;2022-07-11T02:18:27;1.50;;;1.40;;
18820;SDS011;9539;59.332;18.034;2022-07-11T02:20:54;1.80;;;1.50;;
18820;SDS011;9539;59.332;18.034;2022-07-11T02:23:21;1.85;;;1.40;;
18820;SDS011;9539;59.332;18.034;2022-07-11T02:25:51;2.55;;;1.50;;
18820;SDS011;9539;59.332;18.034;2022-07-11T02:28:18;1.40;;;1.30;;
18820;SDS011;9539;59.332;18.034;2022-07-11T02:30:45;1.60;;;1.50;;
18820;SDS011;9539;59.332;18.034;2022-07-11T02:33:13;1.70;;;1.50;;
18820;SDS011;9539;59.332;18.034;2022-07-11T02:35:40;1.50;;;1.40;;
18820;SDS011;9539;59.332;18.034;2022-07-11T02:38:07;2.95;;;1.45;;
18820;SDS011;9539;59.332;18.034;2022-07-11T02:40:36;2.45;;;1.20;;
18820;SDS011;9539;59.332;18.034;2022-07-11T02:43:04;3.80;;;1.40;;
18820;SDS011;9539;59.332;18.034;2022-07-11T02:45:30;1.65;;;1.50;;
18820;SDS011;9539;59.332;18.034;2022-07-11T02:48:00;2.40;;;1.60;;
18820;SDS011;9539;59.332;18.034;2022-07-11T02:50:28;1.60;;;1.50;;
18820;SDS011;9539;59.332;18.034;2022-07-11T02:52:56;1.60;;;1.50;;
18820;SDS011;9539;59.332;18.034;2022-07-11T02:55:23;2.03;;;1.65;;
18820;SDS011;9539;59.332;18.034;2022-07-11T02:57:49;3.05;;;1.50;;
18820;SDS011;9539;59.332;18.034;2022-07-11T03:00:17;1.63;;;1.52;;
18820;SDS011;9539;59.332;18.034;2022-07-11T03:02:44;2.03;;;1.60;;
18820;SDS011;9539;59.332;18.034;2022-07-11T03:05:11;1.60;;;1.50;;
18820;SDS011;9539;59.332;18.034;2022-07-11T03:07:43;2.47;;;1.60;;
18820;SDS011;9539;59.332;18.034;2022-07-11T03:10:09;3.20;;;1.63;;
18820;SDS011;9539;59.332;18.034;2022-07-11T03:12:37;1.60;;;1.50;;
18820;SDS011;9539;59.332;18.034;2022-07-11T03:15:06;2.88;;;1.77;;
18820;SDS011;9539;59.332;18.034;2022-07-11T03:17:33;3.97;;;1.83;;
18820;SDS011;9539;59.332;18.034;2022-07-11T03:20:01;2.22;;;1.70;;
18820;SDS011;9539;59.332;18.034;2022-07-11T03:22:27;7.00;;;1.77;;
18820;SDS011;9539;59.332;18.034;2022-07-11T03:24:58;2.42;;;1.83;;
18820;SDS011;9539;59.332;18.034;2022-07-11T03:27:26;3.28;;;1.67;;
18820;SDS011;9539;59.332;18.034;2022-07-11T03:29:52;2.15;;;1.40;;
18820;SDS011;9539;59.332;18.034;2022-07-11T03:32:22;1.77;;;1.55;;
18820;SDS011;9539;59.332;18.034;2022-07-11T03:34:51;3.72;;;1.83;;
18820;SDS011;9539;59.332;18.034;2022-07-11T03:37:35;2.53;;;1.50;;
18820;SDS011;9539;59.332;18.034;2022-07-11T03:40:03;1.60;;;1.50;;
18820;SDS011;9539;59.332;18.034;2022-07-11T03:42:31;2.08;;;1.50;;
18820;SDS011;9539;59.332;18.034;2022-07-11T03:44:58;3.10;;;1.73;;
18820;SDS011;9539;59.332;18.034;2022-07-11T03:47:24;3.50;;;1.80;;
18820;SDS011;9539;59.332;18.034;2022-07-11T03:49:51;2.72;;;1.60;;
18820;SDS011;9539;59.332;18.034;2022-07-11T03:52:21;1.60;;;1.30;;
18820;SDS011;9539;59.332;18.034;2022-07-11T03:54:51;3.90;;;1.50;;
18820;SDS011;9539;59.332;18.034;2022-07-11T03:57:19;3.88;;;1.40;;
18820;SDS011;9539;59.332;18.034;2022-07-11T03:59:46;3.17;;;1.33;;
18820;SDS011;9539;59.332;18.034;2022-07-11T04:02:12;1.73;;;1.55;;
18820;SDS011;9539;59.332;18.034;2022-07-11T04:04:41;3.85;;;1.50;;
18820;SDS011;9539;59.332;18.034;2022-07-11T04:07:08;7.20;;;1.50;;
18820;SDS011;9539;59.332;18.034;2022-07-11T04:09:35;3.17;;;1.42;;
18820;SDS011;9539;59.332;18.034;2022-07-11T04:12:01;1.98;;;1.20;;
18820;SDS011;9539;59.332;18.034;2022-07-11T04:14:30;1.52;;;1.30;;
18820;SDS011;9539;59.332;18.034;2022-07-11T04:16:56;2.63;;;1.52;;
18820;SDS011;9539;59.332;18.034;2022-07-11T04:19:23;1.40;;;1.30;;
18820;SDS011;9539;59.332;18.034;2022-07-11T04:21:49;1.50;;;1.40;;
18820;SDS011;9539;59.332;18.034;2022-07-11T04:24:16;1.58;;;1.20;;
18820;SDS011;9539;59.332;18.034;2022-07-11T04:26:43;1.42;;;1.27;;
18820;SDS011;9539;59.332;18.034;2022-07-11T04:29:10;1.38;;;1.20;;
18820;SDS011;9539;59.332;18.034;2022-07-11T04:31:38;1.63;;;1.45;;
18820;SDS011;9539;59.332;18.034;2022-07-11T04:34:04;1.95;;;1.20;;
18820;SDS011;9539;59.332;18.034;2022-07-11T04:36:34;10.52;;;1.92;;
18820;SDS011;9539;59.332;18.034;2022-07-11T04:39:01;1.60;;;1.40;;
18820;SDS011;9539;59.332;18.034;2022-07-11T04:41:27;2.63;;;1.38;;
18820;SDS011;9539;59.332;18.034;2022-07-11T04:43:54;3.08;;;1.10;;
18820;SDS011;9539;59.332;18.034;2022-07-11T04:46:21;2.50;;;1.20;;
18820;SDS011;9539;59.332;18.034;2022-07-11T04:48:49;1.40;;;1.30;;
18820;SDS011;9539;59.332;18.034;2022-07-11T04:51:16;1.58;;;1.30;;
18820;SDS011;9539;59.332;18.034;2022-07-11T04:53:43;3.13;;;1.30;;
18820;SDS011;9539;59.332;18.034;2022-07-11T04:56:10;1.40;;;1.30;;
18820;SDS011;9539;59.332;18.034;2022-07-11T04:58:37;1.20;;;1.10;;
18820;SDS011;9539;59.332;18.034;2022-07-11T05:01:03;1.48;;;1.05;;
18820;SDS011;9539;59.332;18.034;2022-07-11T05:03:33;3.05;;;1.17;;
18820;SDS011;9539;59.332;18.034;2022-07-11T05:06:01;2.38;;;1.27;;
18820;SDS011;9539;59.332;18.034;2022-07-11T05:08:34;1.42;;;1.10;;
18820;SDS011;9539;59.332;18.034;2022-07-11T05:11:02;2.50;;;1.20;;
18820;SDS011;9539;59.332;18.034;2022-07-11T05:13:28;1.85;;;1.20;;
18820;SDS011;9539;59.332;18.034;2022-07-11T05:15:55;4.25;;;1.13;;
18820;SDS011;9539;59.332;18.034;2022-07-11T05:18:25;1.30;;;1.02;;
18820;SDS011;9539;59.332;18.034;2022-07-11T05:20:54;2.63;;;1.20;;
18820;SDS011;9539;59.332;18.034;2022-07-11T05:23:24;2.20;;;1.27;;
18820;SDS011;9539;59.332;18.034;2022-07-11T05:25:51;4.43;;;1.40;;
18820;SDS011;9539;59.332;18.034;2022-07-11T05:28:18;3.80;;;1.50;;
18820;SDS011;9539;59.332;18.034;2022-07-11T05:30:44;1.30;;;1.13;;
18820;SDS011;9539;59.332;18.034;2022-07-11T05:33:11;1.23;;;1.10;;
18820;SDS011;9539;59.332;18.034;2022-07-11T05:35:38;3.67;;;1.30;;
18820;SDS011;9539;59.332;18.034;2022-07-11T05:38:04;1.35;;;1.20;;
18820;SDS011;9539;59.332;18.034;2022-07-11T05:40:35;1.40;;;1.30;;
18820;SDS011;9539;59.332;18.034;2022-07-11T05:43:01;2.70;;;1.45;;
18820;SDS011;9539;59.332;18.034;2022-07-11T05:45:28;1.38;;;1.27;;
18820;SDS011;9539;59.332;18.034;2022-07-11T05:47:55;2.40;;;1.20;;
18820;SDS011;9539;59.332;18.034;2022-07-11T05:50:24;2.40;;;1.10;;
18820;SDS011;9539;59.332;18.034;2022-07-11T05:52:51;1.48;;;1.02;;
18820;SDS011;9539;59.332;18.034;2022-07-11T05:55:22;1.30;;;1.20;;
18820;SDS011;9539;59.332;18.034;2022-07-11T05:57:55;0.90;;;0.90;;
18820;SDS011;9539;59.332;18.034;2022-07-11T06:00:22;2.55;;;1.25;;
18820;SDS011;9539;59.332;18.034;2022-07-11T06:02:52;5.10;;;1.30;;
18820;SDS011;9539;59.332;18.034;2022-07-11T06:05:19;1.40;;;1.27;;
18820;SDS011;9539;59.332;18.034;2022-07-11T06:07:46;3.38;;;1.58;;
18820;SDS011;9539;59.332;18.034;2022-07-11T06:10:33;1.63;;;1.00;;
18820;SDS011;9539;59.332;18.034;2022-07-11T06:13:01;1.10;;;1.00;;
18820;SDS011;9539;59.332;18.034;2022-07-11T06:15:31;1.50;;;1.00;;
18820;SDS011;9539;59.332;18.034;2022-07-11T06:17:57;2.78;;;1.50;;
18820;SDS011;9539;59.332;18.034;2022-07-11T06:20:27;3.53;;;1.23;;
18820;SDS011;9539;59.332;18.034;2022-07-11T06:22:56;3.65;;;1.20;;
18820;SDS011;9539;59.332;18.034;2022-07-11T06:25:23;4.32;;;1.38;;
18820;SDS011;9539;59.332;18.034;2022-07-11T06:27:50;1.25;;;0.90;;
18820;SDS011;9539;59.332;18.034;2022-07-11T06:30:20;2.40;;;1.17;;
18820;SDS011;9539;59.332;18.034;2022-07-11T06:32:48;3.47;;;1.10;;
18820;SDS011;9539;59.332;18.034;2022-07-11T06:35:14;1.73;;;1.10;;
18820;SDS011;9539;59.332;18.034;2022-07-11T06:37:41;1.60;;;1.00;;
18820;SDS011;9539;59.332;18.034;2022-07-11T06:40:08;3.17;;;1.23;;
18820;SDS011;9539;59.332;18.034;2022-07-11T06:42:36;1.52;;;0.98;;
18820;SDS011;9539;59.332;18.034;2022-07-11T06:45:03;1.20;;;0.82;;
18820;SDS011;9539;59.332;18.034;2022-07-11T06:47:33;2.20;;;1.20;;
18820;SDS011;9539;59.332;18.034;2022-07-11T06:50:02;3.42;;;1.10;;
18820;SDS011;9539;59.332;18.034;2022-07-11T06:52:32;1.25;;;1.08;;
18820;SDS011;9539;59.332;18.034;2022-07-11T06:55:02;1.10;;;1.00;;
18820;SDS011;9539;59.332;18.034;2022-07-11T06:57:29;2.30;;;1.00;;
18820;SDS011;9539;59.332;18.034;2022-07-11T06:59:56;3.85;;;1.10;;
18820;SDS011;9539;59.332;18.034;2022-07-11T07:02:22;1.98;;;1.10;;
18820;SDS011;9539;59.332;18.034;2022-07-11T07:04:56;1.08;;;1.00;;
18820;SDS011;9539;59.332;18.034;2022-07-11T07:07:23;1.13;;;0.88;;
18820;SDS011;9539;59.332;18.034;2022-07-11T07:09:50;1.10;;;0.82;;
18820;SDS011;9539;59.332;18.034;2022-07-11T07:12:19;0.80;;;0.80;;
18820;SDS011;9539;59.332;18.034;2022-07-11T07:14:46;0.82;;;0.82;;
18820;SDS011;9539;59.332;18.034;2022-07-11T07:17:13;1.35;;;0.88;;
18820;SDS011;9539;59.332;18.034;2022-07-11T07:19:43;3.15;;;0.85;;
18820;SDS011;9539;59.332;18.034;2022-07-11T07:22:11;3.00;;;0.80;;
18820;SDS011;9539;59.332;18.034;2022-07-11T07:24:41;0.90;;;0.90;;
18820;SDS011;9539;59.332;18.034;2022-07-11T07:27:10;2.40;;;1.00;;
18820;SDS011;9539;59.332;18.034;2022-07-11T07:29:37;0.85;;;0.70;;
18820;SDS011;9539;59.332;18.034;2022-07-11T07:32:04;1.42;;;0.80;;
18820;SDS011;9539;59.332;18.034;2022-07-11T07:34:34;0.68;;;0.68;;
18820;SDS011;9539;59.332;18.034;2022-07-11T07:37:01;0.75;;;0.75;;
18820;SDS011;9539;59.332;18.034;2022-07-11T07:39:29;1.75;;;0.80;;
18820;SDS011;9539;59.332;18.034;2022-07-11T07:41:56;0.70;;;0.70;;
18820;SDS011;9539;59.332;18.034;2022-07-11T07:44:22;2.30;;;0.82;;
18820;SDS011;9539;59.332;18.034;2022-07-11T07:46:49;1.23;;;0.90;;
18820;SDS011;9539;59.332;18.034;2022-07-11T07:49:16;1.67;;;1.00;;
18820;SDS011;9539;59.332;18.034;2022-07-11T07:51:42;2.03;;;1.10;;
18820;SDS011;9539;59.332;18.034;2022-07-11T07:54:09;1.20;;;1.10;;
18820;SDS011;9539;59.332;18.034;2022-07-11T07:56:37;1.00;;;0.80;;
18820;SDS011;9539;59.332;18.034;2022-07-11T07:59:04;1.25;;;1.00;;
18820;SDS011;9539;59.332;18.034;2022-07-11T08:01:33;2.40;;;1.00;;
18820;SDS011;9539;59.332;18.034;2022-07-11T08:04:02;0.70;;;0.70;;
18820;SDS011;9539;59.332;18.034;2022-07-11T08:06:29;1.02;;;0.90;;
18820;SDS011;9539;59.332;18.034;2022-07-11T08:08:56;0.80;;;0.80;;
18820;SDS011;9539;59.332;18.034;2022-07-11T08:11:22;2.80;;;1.00;;
18820;SDS011;9539;59.332;18.034;2022-07-11T08:13:50;0.93;;;0.93;;
18820;SDS011;9539;59.332;18.034;2022-07-11T08:16:20;1.70;;;1.02;;
18820;SDS011;9539;59.332;18.034;2022-07-11T08:18:48;2.20;;;0.90;;
18820;SDS011;9539;59.332;18.034;2022-07-11T08:21:15;0.82;;;0.82;;
18820;SDS011;9539;59.332;18.034;2022-07-11T08:23:41;1.02;;;0.80;;
18820;SDS011;9539;59.332;18.034;2022-07-11T08:26:08;0.70;;;0.70;;
18820;SDS011;9539;59.332;18.034;2022-07-11T08:28:35;0.60;;;0.60;;
18820;SDS011;9539;59.332;18.034;2022-07-11T08:31:03;0.80;;;0.80;;
18820;SDS011;9539;59.332;18.034;2022-07-11T08:33:30;1.08;;;0.80;;
18820;SDS011;9539;59.332;18.034;2022-07-11T08:35:57;2.72;;;0.88;;
18820;SDS011;9539;59.332;18.034;2022-07-11T08:38:23;0.70;;;0.70;;
18820;SDS011;9539;59.332;18.034;2022-07-11T08:40:53;2.05;;;0.70;;
18820;SDS011;9539;59.332;18.034;2022-07-11T08:43:22;1.63;;;0.95;;
18820;SDS011;9539;59.332;18.034;2022-07-11T08:45:52;0.70;;;0.70;;
18820;SDS011;9539;59.332;18.034;2022-07-11T08:48:22;3.40;;;0.95;;
18820;SDS011;9539;59.332;18.034;2022-07-11T08:50:52;0.70;;;0.70;;
18820;SDS011;9539;59.332;18.034;2022-07-11T08:53:19;0.90;;;0.90;;
18820;SDS011;9539;59.332;18.034;2022-07-11T08:55:46;0.70;;;0.70;;
18820;SDS011;9539;59.332;18.034;2022-07-11T08:58:15;0.95;;;0.80;;
18820;SDS011;9539;59.332;18.034;2022-07-11T09:00:47;1.98;;;1.20;;
18820;SDS011;9539;59.332;18.034;2022-07-11T09:03:14;1.15;;;1.05;;
18820;SDS011;9539;59.332;18.034;2022-07-11T09:05:46;0.80;;;0.80;;
18820;SDS011;9539;59.332;18.034;2022-07-11T09:08:13;1.20;;;0.90;;
18820;SDS011;9539;59.332;18.034;2022-07-11T09:10:42;0.80;;;0.80;;
18820;SDS011;9539;59.332;18.034;2022-07-11T09:13:10;0.73;;;0.70;;
18820;SDS011;9539;59.332;18.034;2022-07-11T09:15:37;0.80;;;0.70;;
18820;SDS011;9539;59.332;18.034;2022-07-11T09:20:59;0.77;;;0.77;;
18820;SDS011;9539;59.332;18.034;2022-07-11T09:23:45;5.35;;;0.90;;
18820;SDS011;9539;59.332;18.034;2022-07-11T09:26:29;1.15;;;0.90;;
18820;SDS011;9539;59.332;18.034;2022-07-11T09:29:00;1.98;;;0.90;;
18820;SDS011;9539;59.332;18.034;2022-07-11T09:31:32;1.80;;;1.65;;
18820;SDS011;9539;59.332;18.034;2022-07-11T09:34:03;2.15;;;0.70;;
18820;SDS011;9539;59.332;18.034;2022-07-11T09:36:35;2.47;;;0.80;;
18820;SDS011;9539;59.332;18.034;2022-07-11T09:39:04;1.38;;;1.13;;
18820;SDS011;9539;59.332;18.034;2022-07-11T09:41:35;4.72;;;1.40;;
18820;SDS011;9539;59.332;18.034;2022-07-11T09:44:07;2.63;;;1.13;;
18820;SDS011;9539;59.332;18.034;2022-07-11T09:46:34;1.40;;;1.00;;
18820;SDS011;9539;59.332;18.034;2022-07-11T09:49:01;0.80;;;0.80;;
18820;SDS011;9539;59.332;18.034;2022-07-11T09:51:29;1.92;;;1.05;;
18820;SDS011;9539;59.332;18.034;2022-07-11T09:54:02;1.75;;;0.82;;
18820;SDS011;9539;59.332;18.034;2022-07-11T09:56:40;0.88;;;0.77;;
18820;SDS011;9539;59.332;18.034;2022-07-11T09:59:09;1.23;;;1.00;;
18820;SDS011;9539;59.332;18.034;2022-07-11T10:01:38;3.05;;;2.08;;
18820;SDS011;9539;59.332;18.034;2022-07-11T10:04:09;0.98;;;0.77;;
18820;SDS011;9539;59.332;18.034;2022-07-11T10:06:40;2.63;;;0.90;;
18820;SDS011;9539;59.332;18.034;2022-07-11T10:09:11;0.88;;;0.75;;
18820;SDS011;9539;59.332;18.034;2022-07-11T10:11:37;2.17;;;0.80;;
18820;SDS011;9539;59.332;18.034;2022-07-11T10:14:05;1.00;;;0.70;;
18820;SDS011;9539;59.332;18.034;2022-07-11T10:16:37;0.95;;;0.80;;
18820;SDS011;9539;59.332;18.034;2022-07-11T10:19:14;2.30;;;1.13;;
18820;SDS011;9539;59.332;18.034;2022-07-11T10:21:52;2.90;;;1.10;;
18820;SDS011;9539;59.332;18.034;2022-07-11T10:24:30;1.75;;;1.35;;
18820;SDS011;9539;59.332;18.034;2022-07-11T10:27:05;2.17;;;1.90;;
18820;SDS011;9539;59.332;18.034;2022-07-11T10:29:40;2.20;;;1.52;;
18820;SDS011;9539;59.332;18.034;2022-07-11T10:32:12;1.17;;;1.00;;
18820;SDS011;9539;59.332;18.034;2022-07-11T10:34:39;1.48;;;0.82;;
18820;SDS011;9539;59.332;18.034;2022-07-11T10:37:06;1.23;;;0.90;;
18820;SDS011;9539;59.332;18.034;2022-07-11T10:39:38;2.20;;;0.80;;
18820;SDS011;9539;59.332;18.034;2022-07-11T10:42:19;1.58;;;0.90;;
18820;SDS011;9539;59.332;18.034;2022-07-11T10:44:47;1.33;;;1.00;;
18820;SDS011;9539;59.332;18.034;2022-07-11T10:47:33;1.88;;;0.80;;
18820;SDS011;9539;59.332;18.034;2022-07-11T10:50:07;1.15;;;1.10;;
18820;SDS011;9539;59.332;18.034;2022-07-11T10:52:45;0.73;;;0.73;;
18820;SDS011;9539;59.332;18.034;2022-07-11T10:55:23;0.90;;;0.90;;
18820;SDS011;9539;59.332;18.034;2022-07-11T10:58:02;0.80;;;0.80;;
18820;SDS011;9539;59.332;18.034;2022-07-11T11:00:37;1.05;;;0.95;;
18820;SDS011;9539;59.332;18.034;2022-07-11T11:03:10;1.45;;;1.00;;
18820;SDS011;9539;59.332;18.034;2022-07-11T11:05:44;0.80;;;0.80;;
18820;SDS011;9539;59.332;18.034;2022-07-11T11:11:33;1.70;;;0.73;;
18820;SDS011;9539;59.332;18.034;2022-07-11T11:14:17;1.10;;;0.82;;
18820;SDS011;9539;59.332;18.034;2022-07-11T11:20:02;1.95;;;0.70;;
18820;SDS011;9539;59.332;18.034;2022-07-11T11:22:29;1.60;;;0.75;;
18820;SDS011;9539;59.332;18.034;2022-07-11T11:24:56;1.85;;;0.70;;
18820;SDS011;9539;59.332;18.034;2022-07-11T11:27:25;4.00;;;1.77;;
18820;SDS011;9539;59.332;18.034;2022-07-11T11:29:53;2.42;;;1.75;;
18820;SDS011;9539;59.332;18.034;2022-07-11T11:32:21;1.35;;;0.90;;
18820;SDS011;9539;59.332;18.034;2022-07-11T11:34:48;4.28;;;1.05;;
18820;SDS011;9539;59.332;18.034;2022-07-11T11:37:16;1.58;;;0.70;;
18820;SDS011;9539;59.332;18.034;2022-07-11T11:39:43;4.00;;;1.50;;
18820;SDS011;9539;59.332;18.034;2022-07-11T11:42:11;1.00;;;1.00;;
18820;SDS011;9539;59.332;18.034;2022-07-11T11:44:51;1.08;;;0.90;;
18820;SDS011;9539;59.332;18.034;2022-07-11T11:47:27;1.60;;;0.90;;
18820;SDS011;9539;59.332;18.034;2022-07-11T11:49:55;1.48;;;1.00;;
18820;SDS011;9539;59.332;18.034;2022-07-11T11:52:26;0.90;;;0.90;;
18820;SDS011;9539;59.332;18.034;2022-07-11T11:54:55;0.80;;;0.80;;
18820;SDS011;9539;59.332;18.034;2022-07-11T11:57:26;1.75;;;0.90;;
18820;SDS011;9539;59.332;18.034;2022-07-11T11:59:55;1.52;;;1.35;;
18820;SDS011;9539;59.332;18.034;2022-07-11T12:02:23;1.65;;;1.10;;
18820;SDS011;9539;59.332;18.034;2022-07-11T12:04:51;2.95;;;1.40;;
18820;SDS011;9539;59.332;18.034;2022-07-11T12:07:22;3.10;;;0.98;;
18820;SDS011;9539;59.332;18.034;2022-07-11T12:09:53;3.33;;;0.80;;
18820;SDS011;9539;59.332;18.034;2022-07-11T12:12:25;2.70;;;1.50;;
18820;SDS011;9539;59.332;18.034;2022-07-11T12:15:24;2.67;;;1.50;;
18820;SDS011;9539;59.332;18.034;2022-07-11T12:17:54;2.35;;;1.40;;
18820;SDS011;9539;59.332;18.034;2022-07-11T12:20:41;1.20;;;1.10;;
18820;SDS011;9539;59.332;18.034;2022-07-11T12:23:09;1.60;;;1.38;;
18820;SDS011;9539;59.332;18.034;2022-07-11T12:25:39;1.98;;;1.30;;
18820;SDS011;9539;59.332;18.034;2022-07-11T12:28:07;4.70;;;1.15;;
18820;SDS011;9539;59.332;18.034;2022-07-11T12:30:37;2.33;;;1.50;;
18820;SDS011;9539;59.332;18.034;2022-07-11T12:33:07;4.13;;;1.40;;
18820;SDS011;9539;59.332;18.034;2022-07-11T12:35:36;2.30;;;1.20;;
18820;SDS011;9539;59.332;18.034;2022-07-11T12:38:17;3.65;;;1.23;;
18820;SDS011;9539;59.332;18.034;2022-07-11T12:40:56;7.25;;;1.40;;
18820;SDS011;9539;59.332;18.034;2022-07-11T12:43:42;6.55;;;1.63;;
18820;SDS011;9539;59.332;18.034;2022-07-11T12:46:29;4.45;;;1.48;;
18820;SDS011;9539;59.332;18.034;2022-07-11T12:48:56;7.10;;;1.58;;
18820;SDS011;9539;59.332;18.034;2022-07-11T12:51:28;5.15;;;1.20;;
18820;SDS011;9539;59.332;18.034;2022-07-11T12:54:01;4.00;;;1.30;;
18820;SDS011;9539;59.332;18.034;2022-07-11T12:56:29;3.53;;;1.38;;
18820;SDS011;9539;59.332;18.034;2022-07-11T12:58:56;4.22;;;1.40;;
18820;SDS011;9539;59.332;18.034;2022-07-11T13:01:26;3.03;;;1.40;;
18820;SDS011;9539;59.332;18.034;2022-07-11T13:03:57;2.70;;;1.10;;
18820;SDS011;9539;59.332;18.034;2022-07-11T13:06:26;2.33;;;0.95;;
18820;SDS011;9539;59.332;18.034;2022-07-11T13:09:13;2.70;;;1.27;;
18820;SDS011;9539;59.332;18.034;2022-07-11T13:11:40;3.25;;;1.13;;
18820;SDS011;9539;59.332;18.034;2022-07-11T13:14:06;1.65;;;1.00;;
18820;SDS011;9539;59.332;18.034;2022-07-11T13:16:54;1.80;;;1.08;;
18820;SDS011;9539;59.332;18.034;2022-07-11T13:19:22;2.97;;;1.10;;
18820;SDS011;9539;59.332;18.034;2022-07-11T13:21:48;4.07;;;1.20;;
18820;SDS011;9539;59.332;18.034;2022-07-11T13:24:15;2.60;;;1.10;;
18820;SDS011;9539;59.332;18.034;2022-07-11T13:26:42;1.60;;;1.10;;
18820;SDS011;9539;59.332;18.034;2022-07-11T13:29:08;2.17;;;1.15;;
18820;SDS011;9539;59.332;18.034;2022-07-11T13:31:35;0.95;;;0.95;;
18820;SDS011;9539;59.332;18.034;2022-07-11T13:34:04;2.10;;;1.27;;
18820;SDS011;9539;59.332;18.034;2022-07-11T13:36:32;1.67;;;1.50;;
18820;SDS011;9539;59.332;18.034;2022-07-11T13:38:59;2.13;;;1.20;;
18820;SDS011;9539;59.332;18.034;2022-07-11T13:41:28;1.27;;;1.10;;
18820;SDS011;9539;59.332;18.034;2022-07-11T13:43:55;5.47;;;1.40;;
18820;SDS011;9539;59.332;18.034;2022-07-11T13:46:22;3.17;;;1.30;;
18820;SDS011;9539;59.332;18.034;2022-07-11T13:48:49;1.42;;;1.30;;
18820;SDS011;9539;59.332;18.034;2022-07-11T13:51:15;3.35;;;1.38;;
18820;SDS011;9539;59.332;18.034;2022-07-11T13:53:43;2.00;;;1.10;;
18820;SDS011;9539;59.332;18.034;2022-07-11T13:56:10;2.60;;;1.20;;
18820;SDS011;9539;59.332;18.034;2022-07-11T13:58:37;2.50;;;1.10;;
18820;SDS011;9539;59.332;18.034;2022-07-11T14:01:04;2.90;;;1.40;;
18820;SDS011;9539;59.332;18.034;2022-07-11T14:03:32;2.47;;;1.10;;
18820;SDS011;9539;59.332;18.034;2022-07-11T14:05:58;1.25;;;1.15;;
18820;SDS011;9539;59.332;18.034;2022-07-11T14:08:25;1.58;;;1.27;;
18820;SDS011;9539;59.332;18.034;2022-07-11T14:10:53;1.67;;;1.30;;
18820;SDS011;9539;59.332;18.034;2022-07-11T14:13:20;3.15;;;1.40;;
18820;SDS011;9539;59.332;18.034;2022-07-11T14:15:47;2.35;;;1.40;;
18820;SDS011;9539;59.332;18.034;2022-07-11T14:18:14;1.33;;;1.10;;
18820;SDS011;9539;59.332;18.034;2022-07-11T14:20:41;1.20;;;1.05;;
18820;SDS011;9539;59.332;18.034;2022-07-11T14:23:08;1.15;;;1.05;;
18820;SDS011;9539;59.332;18.034;2022-07-11T14:25:37;1.80;;;1.00;;
18820;SDS011;9539;59.332;18.034;2022-07-11T14:28:07;2.22;;;1.10;;
18820;SDS011;9539;59.332;18.034;2022-07-11T14:30:37;1.83;;;1.20;;
18820;SDS011;9539;59.332;18.034;2022-07-11T14:33:04;1.05;;;1.00;;
18820;SDS011;9539;59.332;18.034;2022-07-11T14:35:33;3.50;;;1.13;;
18820;SDS011;9539;59.332;18.034;2022-07-11T14:37:59;1.20;;;1.10;;
18820;SDS011;9539;59.332;18.034;2022-07-11T14:40:26;2.92;;;1.25;;
18820;SDS011;9539;59.332;18.034;2022-07-11T14:42:53;1.75;;;1.10;;
18820;SDS011;9539;59.332;18.034;2022-07-11T14:45:29;1.58;;;1.00;;
18820;SDS011;9539;59.332;18.034;2022-07-11T14:47:59;2.13;;;1.10;;
18820;SDS011;9539;59.332;18.034;2022-07-11T14:50:25;2.90;;;1.50;;
18820;SDS011;9539;59.332;18.034;2022-07-11T14:52:55;1.45;;;1.35;;
18820;SDS011;9539;59.332;18.034;2022-07-11T14:55:21;1.20;;;1.10;;
18820;SDS011;9539;59.332;18.034;2022-07-11T14:57:48;1.85;;;1.25;;
18820;SDS011;9539;59.332;18.034;2022-07-11T15:00:15;1.90;;;1.42;;
18820;SDS011;9539;59.332;18.034;2022-07-11T15:02:47;1.80;;;1.30;;
18820;SDS011;9539;59.332;18.034;2022-07-11T15:05:38;3.53;;;1.30;;
18820;SDS011;9539;59.332;18.034;2022-07-11T15:08:04;1.60;;;1.30;;